Stramarzolina 2015  - km 21/9 e settore giovanile

Capanne - 29/3/2015

 

foto     video

 

Risultati a cura di DreamRunners Perugia

 

Ordine d'arrivo generale maschile - km 21
Pos Atleta Squadra ANNO Cat. Tempo Min/Km P.Cat.
1 HAJJY MOHAMED ATL. CASTENASO CELTIC DRUID 1979 SM35 01:10:55 03:22 0
2 CONTI PIERGIORGIO A.S. ATHLON ASI BASTIA PG 1970 SM45 01:15:10 03:34 0
3 MERLUZZO MATTEO G.S. FILIPPIDE C. D. LAGO 1987 JPSM 01:15:26 03:35 0
4 COSTANZI ENRICO ATHLETIC TERNI 1978 SM35 01:18:47 03:44 0
5 ANGELONI GIULIO ATL. AVIS PERUGIA 1994 JPSM 01:19:03 03:45 0
6 GRILLO GIANFILIPPO ATHLETIC TERNI 1987 JPSM 01:19:23 03:46 1
7 HARRISON THOMAS ATL. AVIS PERUGIA 1992 JPSM 01:20:31 03:49 2
8 COLETTI ALESSIO POD. AVIS DERUTA 1976 SM35 01:22:08 03:54 1
9 PANFILI FLAVIO ATL. AVIS PERUGIA 1971 SM40 01:22:47 03:55 1
10 GIULIANI LUCA ATL. AVIS PERUGIA 1983 JPSM 01:23:23 03:57 3
11 LICATA GABRIELE GUBBIO RUNNERS 1973 SM40 01:24:01 03:59 2
12 SFONDALMONDO MASSIMILIANO ATL. AVIS PERUGIA 1971 SM40 01:24:19 04:00 3
13 CAVALLUCCI MARCO RUNNERS SANGEMINI TR 1967 SM45 01:24:27 04:00 1
14 BIANCONI ENRICO MARATHON CLUB C. DI CASTELLO 1977 SM35 01:25:01 04:02 2
15 TAZZA GIORGIO AMATORI PODISTICA TERNI 1961 SM50 01:25:27 04:03 1
16 PETRUZZI PAOLO G POINT PROFESSIONE SPORT 1983 JPSM 01:25:33 04:03 4
17 FRANCESCHELLI LUIGI ATL. AVIS PERUGIA 1970 SM45 01:25:37 04:04 2
18 ZANINO GIOVANNI ALESSIO A.S.P.A. BASTIA U. PG 1966 SM45 01:25:54 04:04 3
19 PIRILLI ANDREA DREAM RUNNERS PG 1969 SM45 01:26:13 04:05 4
20 COSTANTINI TOMMASO VALORE SALUTE FORTI E VELOCI 1979 SM35 01:26:16 04:05 3
21 BAZZUCCHI MAURO A.S.P.A. BASTIA U. PG 1965 SM50 01:26:27 04:06 2
22 MATTIOLI CLAUDIO ATL. AVIS PERUGIA 1959 SM55 01:26:30 04:06 1
23 MINISTRO FRANCESCO AMATORI POD. TERNI 1972 SM40 01:26:39 04:06 4
24 MARIOLI STEFANO CDP-T&RB GROUP-AREA SISTEMA 1963 SM50 01:26:43 04:07 3
25 BOINEGA NUNZIO POL. TIFERNUM V 1972 SM40 01:26:47 04:07 5
26 DRAGHI ANDREA PODISTICA CLT 1971 SM40 01:26:55 04:07 6
27 POLTICCHIA ROBERTO CDP-T&RB GROUP-AREA SISTEMA 1964 SM50 01:27:08 04:08 4
28 BERTOLINI ADEMARO CDP-T&RB GROUP-AREA SISTEMA 1956 SM55 01:27:15 04:08 2
29 RICCIARELLI ROCCO POD. AVIS DERUTA 1983 JPSM 01:27:23 04:09 5
30 PALLOTTA ROBERTO ATL. WINNER FOLIGNO 1962 SM50 01:27:50 04:10 5
31 LAZZERINI GIANFRANCO G.S. FILIPPIDE C. D. LAGO 1974 SM40 01:28:19 04:11 7
32 ZUCCHINI ANDREA MARATHON CLUB C. DI CASTELLO 1971 SM40 01:28:39 04:12 8
33 D'AMICO GIOVANNI CDP-T&RB GROUP-AREA SISTEMA 1956 SM55 01:28:49 04:13 3
34 SAVERI UGO ATL. AVIS PERUGIA 1968 SM45 01:29:07 04:13 5
35 TORTOIOLI MARCO ATL. AVIS PERUGIA 1972 SM40 01:29:07 04:13 9
36 ANTONINI GIANLUCA ASSISI RUNNERS 1972 SM40 01:29:38 04:15 10
37 MAZZOLENI FULVIO POD. CORCIANO 1971 SM40 01:29:44 04:15 11
38 BENEDETTI STEFANO ATL. IL COLLE PERUGIA 1969 SM45 01:30:08 04:16 6
39 MANETTA SERGIO CDP-T&RB GROUP-AREA SISTEMA 1957 SM55 01:30:38 04:18 4
40 STANGONI GABRIELE APERDIFIATO 1985 JPSM 01:30:43 04:18 6
41 GIANNONI CLAUDIO CDP-T&RB GROUP-AREA SISTEMA 1961 SM50 01:30:48 04:18 6
42 TEODORI LUCA ATL. AVIS PERUGIA 1970 SM45 01:30:51 04:18 7
43 GAILLARDI ALESSIO A.S.P.A. BASTIA U. PG 1973 SM40 01:30:58 04:19 12
44 GENCA ROBERTO AVIS FOIANO 1978 SM35 01:31:31 04:20 4
45 PISANI EMILIO ATL. CAPANNE PG 1971 SM40 01:31:42 04:21 13
46 GABARRINI ANGELO ATL. IL COLLE PERUGIA 1961 SM50 01:31:44 04:21 7
47 BENDINI MARIO ATL. WINNER FOLIGNO 1966 SM45 01:31:47 04:21 8
48 BATTISTELLI FABIO ASSISI RUNNERS 1979 SM35 01:31:58 04:22 5
49 PIGINI ALVARO UISPORT AVIS TODI 1959 SM55 01:32:04 04:22 5
50 SPIGARELLI LUCA ASSISI RUNNERS 1982 JPSM 01:32:40 04:24 7
51 BOSCO AUGUSTO BENEDETTO AMATORI POD. TERNI 1982 JPSM 01:33:00 04:25 8
52 TINI FABRIZIO ATL. CAPANNE PG 1967 SM45 01:33:15 04:25 9
53 IAIANI GIUSEPPE UISP FOLIGNO 1961 SM50 01:33:19 04:25 8
54 LACCHI MASSIMILIANO ATL. TAINO 1976 SM35 01:33:20 04:25 6
55 SCAPPINI IVAN ATL. AVIS PERUGIA 1972 SM40 01:33:31 04:26 14
56 BAROLA MARCO ATL. IL COLLE PERUGIA 1969 SM45 01:33:40 04:26 10
57 ZOCCOLINI MICHELE ATL. CAPANNE PG 1974 SM40 01:34:14 04:28 15
58 COPPINI VALTER CDP-T&RB GROUP-AREA SISTEMA 1965 SM50 01:34:15 04:28 9
59 MARTINETTI FABRIZIO CDP-T&RB GROUP-AREA SISTEMA 1955 SM60 01:34:21 04:28 1
60 MAZZONI MICHELE ATL. WINNER FOLIGNO 1975 SM40 01:34:34 04:29 16
61 COSTARELLI LEONARDO POD. AVIS DERUTA 1977 SM35 01:34:36 04:29 7
62 GOBBINI SIMONE CDP-T&RB GROUP-AREA SISTEMA 1972 SM40 01:34:47 04:30 17
63 BELLI GIUSEPPE A.S.P.A. BASTIA U. PG 1971 SM40 01:34:50 04:30 18
64 GABRIONI LUIGI ATL. IL COLLE PERUGIA 1976 SM35 01:34:59 04:30 8
65 CASSETTA FABIO ASSISI RUNNERS 1972 SM40 01:34:59 04:30 19
66 MINELLI FEDERICO GUBBIO RUNNERS 1974 SM40 01:35:13 04:31 20
67 RASPA ALESSANDRO ASSISI RUNNERS 1981 JPSM 01:35:38 04:32 9
68 CASTELLANI GIOVANNI ATL. IL COLLE PERUGIA 1964 SM50 01:35:38 04:32 10
69 RONDINI FABRIZIO ATL. UMBERTIDE 1964 SM50 01:36:12 04:34 11
70 CAMBIOTTI MAURO ATL. AVIS PERUGIA 1951 SM60 01:36:22 04:34 2
71 SUVIERI ADRIANO CDP-T&RB GROUP-AREA SISTEMA 1962 SM50 01:36:38 04:35 12
72 GRADASSI MAURO ATL. IL COLLE PERUGIA 1959 SM55 01:36:49 04:35 6
73 ZEPPARELLI FABIO A.P. PONTE FELCINO PG 1970 SM45 01:37:10 04:36 11
74 FAGIOLI ROBERTO POL. VIRTUS SPOLETO 1969 SM45 01:37:12 04:36 12
75 PROIETTI MAURIZIO RUNNERS SANGEMINI TR 1971 SM40 01:37:24 04:37 21
76 FRENGUELLI FRANCO ATL. AVIS PERUGIA 1956 SM55 01:37:32 04:37 7
77 BOSCO SABINO ASSISI RUNNERS 1966 SM45 01:37:45 04:38 13
78 MATARAZZI MARCO ATL. TAINO 1975 SM40 01:38:07 04:39 22
79 GUERCINI BRUNO ATL. IL COLLE PERUGIA 1949 SM65 01:38:24 04:40 1
80 CALDERINI CRISTIANO POD. AVIS DERUTA 1974 SM40 01:38:30 04:40 23
81 LEPRATTO ANGELO ATL. OVADESE ORMIG 1971 SM40 01:38:36 04:40 24
82 CAPORALETTI FRANCESCO ATL. IL COLLE PERUGIA 1985 JPSM 01:38:53 04:41 10
83 PANTI MAURO CDP-T&RB GROUP-AREA SISTEMA 1968 SM45 01:39:14 04:42 14
84 MARCONI FEDERICO ATL. AVIS PERUGIA 1969 SM45 01:39:14 04:42 15
85 MATTEI FILIBERTO MARATHON CLUB C. DI CASTELLO 1972 SM40 01:39:18 04:42 25
86 LAMINCIA GIANLUCA POD. AVIS DERUTA 1974 SM40 01:39:26 04:43 26
87 BRESCIANI CLAUDIO ATL. CAPANNE PG 1958 SM55 01:39:54 04:44 8
88 ZIARELLI FABIO ASSISI RUNNERS 1972 SM40 01:40:38 04:46 27
89 DE FEO PIERPAOLO VOLUMNIA SERICAP PG 1955 SM60 01:40:49 04:47 3
90 BENEDETTI PAOLO A.S.P.A. BASTIA U. PG 1967 SM45 01:40:55 04:47 16
91 DADDI RICCARDO ATL. AVIS PERUGIA 1979 SM35 01:40:59 04:47 9
92 CACCHIATA LEONARDO CDP-T&RB GROUP-AREA SISTEMA 1984 JPSM 01:41:05 04:48 11
93 BASTIANINI EROS POD. AVIS DERUTA 1969 SM45 01:41:07 04:48 17
94 GAROFOLI PAOLO ATL. TAINO 1961 SM50 01:41:07 04:48 13
95 FALASCHI DANIELE CDP-T&RB GROUP-AREA SISTEMA 1971 SM40 01:41:37 04:49 28
96 GIAMBENEDETTI MICHELE POD. AVIS DERUTA 1973 SM40 01:41:42 04:49 29
97 BARILETTI VINCENZO CDP-T&RB GROUP-AREA SISTEMA 1960 SM55 01:42:03 04:50 9
98 MARCANTONINI PAOLO ATL. CAPANNE PG 1969 SM45 01:42:05 04:50 18
99 GAGLIESI GIANNI ATL. IL COLLE PERUGIA 1964 SM50 01:42:14 04:51 14
100 PASSERI LUCIANO ATL. IL COLLE PERUGIA 1951 SM60 01:42:14 04:51 4
101 PACCHIA ALESSANDRO ATL. WINNER FOLIGNO 1969 SM45 01:42:19 04:51 19
102 NEBIOLO ALFREDO ASSISI RUNNERS 1966 SM45 01:42:20 04:51 20
103 MARRI MIRCO TURRIS TORGIANO 1960 SM55 01:42:26 04:51 10
104 BIZZERRI BRUNO MARATHON CLUB C. DI CASTELLO 1962 SM50 01:42:32 04:52 15
105 GRILLI MARCO G.P. ATL. FALERIA 1976 SM35 01:42:34 04:52 10
106 GAZZE' GIUSEPPE NICOLA A.P. PONTE FELCINO PG 1973 SM40 01:42:43 04:52 30
107 RICCIARELLI RICCARDO MARATHON CLUB C. DI CASTELLO 1974 SM40 01:42:46 04:52 31
108 RANCHELLA FABIO CDP-T&RB GROUP-AREA SISTEMA 1967 SM45 01:43:05 04:53 21
109 POPONESI FILIPPO ATL. AVIS PERUGIA 1967 SM45 01:43:13 04:54 22
110 NICCHI SANTI ATL. NICCHI AREZZO 1953 SM60 01:43:25 04:54 5
111 BRIGUORI GIACOMO ATL. SPOLETO 2010 1959 SM55 01:43:34 04:55 11
112 RIDOLFI MASSIMO A.S.P.A. BASTIA U. PG 1962 SM50 01:43:36 04:55 16
113 BACHIORRI MICHELE ATL. CAPANNE PG 1969 SM45 01:43:49 04:55 23
114 PERLA MASSIMILIANO FORTI RUNNERS TERNI 1976 SM35 01:43:56 04:56 11
115 MILLI MARCO MARATHON CLUB C. DI CASTELLO 1980 SM35 01:44:12 04:56 12
116 COLMARETTI EMILIANO FORTI RUNNERS TERNI 1976 SM35 01:44:18 04:57 13
117 BOTO ENRICO POD. AVIS DERUTA 1978 SM35 01:44:24 04:57 14
118 MASSETTI SANDRO MARATHON CLUB C. DI CASTELLO 1960 SM55 01:44:34 04:57 12
119 MENCARINI PAOLO POD. AVIS DERUTA 1964 SM50 01:44:44 04:58 17
120 PICCOLO COSIMO DAMIANO ATL. WINNER FOLIGNO 1943 SM70 01:44:48 04:58 1
121 PARRETTI MARCO POD. CORCIANO 1980 SM35 01:45:16 04:59 15
122 PARADISI MASSIMO POD. CORCIANO 1971 SM40 01:45:24 05:00 32
123 PEDINI DAMIANO ATL. IL COLLE PERUGIA 1968 SM45 01:45:29 05:00 24
124 ROMOLI MARCO A.S.P.A. BASTIA U. PG 1977 SM35 01:45:31 05:00 16
125 RICCI MIRKO MARATHON CLUB C. DI CASTELLO 1971 SM40 01:45:49 05:01 33
126 RIMATORI FLAVIO ATL. WINNER FOLIGNO 1982 JPSM 01:45:58 05:01 12
127 RIMATORI GIACOMO ATL. WINNER FOLIGNO 1981 JPSM 01:45:59 05:01 13
128 MAZZOCCHIO GIAN LUCA ATL. WINNER FOLIGNO 1968 SM45 01:45:59 05:01 25
129 ESPOSITO PAOLO AMATORI VESUVIO 1972 SM40 01:46:20 05:02 34
130 ROSSI GIANLUCA A.S.P.A. BASTIA U. PG 1968 SM45 01:46:27 05:03 26
131 UMIDINI FRANCESCO ATL. IL COLLE PERUGIA 1977 SM35 01:46:39 05:03 17
132 TARTAGLIA LUIGI RUNNERS SANGEMINI TR 1971 SM40 01:46:44 05:04 35
133 ACACIA DIEGO GUBBIO RUNNERS 1977 SM35 01:46:52 05:04 18
134 CASCIANO PIO ATL. SESTINI AREZZO 1958 SM55 01:47:13 05:05 13
135 BONANNO EGIDIO APERDIFIATO 1964 SM50 01:47:35 05:06 18
136 PIERELLI VINICIO ATL. TAINO 1956 SM55 01:48:00 05:07 14
137 PLACIDI ROBERTO ATL. WINNER FOLIGNO 1967 SM45 01:48:19 05:08 27
138 GALVANIN GIANCARLO POD. LINO SPAGNOLI PG 1962 SM50 01:48:33 05:09 19
139 FRAU GIACOMO POD. LINO SPAGNOLI PG 1979 SM35 01:48:52 05:10 19
140 SABATINI MARCO ASSISI RUNNERS 1966 SM45 01:49:20 05:11 28
141 ROSSI LUIGI A.S.P.A. BASTIA U. PG 1957 SM55 01:50:25 05:14 15
142 GIORGI GIULIANO MARATHON CLUB C. DI CASTELLO 1951 SM60 01:50:28 05:14 6
143 ANDRIELLI VALERIO RUNNERS SANGEMINI TR 1977 SM35 01:50:41 05:15 20
144 MARZI MARCO A.S.P.A. BASTIA U. PG 1979 SM35 01:50:43 05:15 21
145 BARLOZZO MARCO ATL. IL COLLE PERUGIA 1976 SM35 01:51:18 05:17 22
146 CAGINI LUCIO POD. CORCIANO 1962 SM50 01:51:19 05:17 20
147 CAPPONI MARCO ATL. IL COLLE PERUGIA 1968 SM45 01:51:23 05:17 29
148 SALARI MICHELE ASSISI RUNNERS 1973 SM40 01:51:25 05:17 36
149 CASTELLANI ENRICO ATL. IL COLLE PERUGIA 1969 SM45 01:51:36 05:17 30
150 BIANCHI MASSIMO ASSISI RUNNERS 1966 SM45 01:51:56 05:18 31
151 MARZOLESI ROBERTO ASSISI RUNNERS 1967 SM45 01:51:56 05:18 32
152 PAZZAGLIA ROBERTO MARATHON CLUB C. DI CASTELLO 1957 SM55 01:52:04 05:19 16
153 GIOVANNONI FRANCO ATL. UMBERTIDE 1944 SM70 01:52:32 05:20 2
154 GUERRIERI MASSIMO G.S. FILIPPIDE C. D. LAGO 1957 SM55 01:52:55 05:21 17
155 OTTAVIANI ANDREA OLYMPIC RUNNERS LAMA 1972 SM40 01:53:34 05:23 37
156 CANAPARI FRANCESCO ATL. AVIS PERUGIA 1958 SM55 01:53:38 05:23 18
157 CIACCIO PIERLUIGI CDP-T&RB GROUP-AREA SISTEMA 1964 SM50 01:53:45 05:24 21
158 CATALDO FEDERICO ATL. CAPANNE PG 1967 SM45 01:54:00 05:24 33
159 BARCHIESI IVO ATL. AMATORI VELLETRI 1950 SM65 01:54:05 05:25 2
160 SALVATO MICHELE ATL. CAPANNE PG 1972 SM40 01:54:19 05:25 38
161 PASQUINI MARIO CDP-T&RB GROUP-AREA SISTEMA 1967 SM45 01:54:20 05:25 34
162 BOCCHINI MAURIZIO CDP-T&RB GROUP-AREA SISTEMA 1969 SM45 01:54:26 05:25 35
163 TORTOIOLI ANDREA ATL. CAPANNE PG 1967 SM45 01:54:27 05:26 36
164 LASAGNA IVAN ATL. CAPANNE PG 1976 SM35 01:54:30 05:26 23
165 ROMITI CLAUDIO DREAM RUNNERS PG 1958 SM55 01:54:33 05:26 19
166 SANTUCCI FEDERICO ATL. CAPANNE PG 1968 SM45 01:54:38 05:26 37
167 GRIGI LUCA MARATHON CLUB C. DI CASTELLO 1969 SM45 01:54:49 05:27 38
168 SCRASCIA GIANPIERO TURRIS TORGIANO 1962 SM50 01:54:52 05:27 22
169 PELLICCIA MARCO ATL. AVIS PERUGIA 1959 SM55 01:55:05 05:27 20
170 RISINI FAUSTO G.S. FILIPPIDE C. D. LAGO 1952 SM60 01:55:27 05:28 7
171 LIBERTI RENZO CDP-T&RB GROUP-AREA SISTEMA 1950 SM65 01:55:29 05:28 3
172 SANTAGA' ANTONIO ATL. CAPANNE PG 1960 SM55 01:56:38 05:32 21
173 GRILLO GIACOMO AMATORI POD. TERNI 1958 SM55 01:57:26 05:34 22
174 PEDUCCI MAURIZIO CDP-T&RB GROUP-AREA SISTEMA 1950 SM65 01:57:54 05:35 4
175 MENCONI ANTONELLO CDP-T&RB GROUP-AREA SISTEMA 1967 SM45 01:58:16 05:36 41
176 GIRELLI LUCIO MARATHON CLUB C. DI CASTELLO 1946 SM65 01:58:57 05:38 5
177 ANDRICCIOLA GIOVANNI A.S.P.A. BASTIA U. PG 1958 SM55 01:58:57 05:38 23
178 TORRICELLI RENZO ATL. AVIS PERUGIA 1953 SM60 01:59:48 05:41 8
179 POLTICCHIA FRANCESCO ASSISI RUNNERS 1973 SM40 02:00:14 05:42 39
180 ROSABELLA MARCO APERDIFIATO 1985 JPSM 02:01:02 05:44 14
181 BORIOSI LUCA APERDIFIATO 1985 JPSM 02:01:03 05:44 15
182 FIORITI EMANUELE APERDIFIATO 1985 JPSM 02:01:03 05:44 16
183 GIANNINI PIERO MARATHON CLUB C. DI CASTELLO 1946 SM65 02:01:11 05:45 6
184 CLERI ANGELO A.S.P.A. BASTIA U. PG 1952 SM60 02:01:14 05:45 9
185 PICCINI FRANCO ATL. CAPANNE PG 1958 SM55 02:01:23 05:45 24
186 BERTRAMI MIRCO CDP-T&RB GROUP-AREA SISTEMA 1965 SM50 02:01:23 05:45 23
187 GALEAZZI GIULIANO CDP-T&RB GROUP-AREA SISTEMA 1955 SM60 02:01:49 05:46 10
188 BELLUCCI LIVIERO ATL. IL COLLE PERUGIA 1966 SM45 02:02:00 05:47 39
189 FADDA ANDREA MARATHON CLUB C. DI CASTELLO 1966 SM45 02:02:01 05:47 40
190 CHIOCCI MARCELLO CDP-T&RB GROUP-AREA SISTEMA 1949 SM65 02:03:39 05:52 7
191 CAFORIO GIUSEPPE POD. CORCIANO 1965 SM50 02:04:50 05:55 24
192 CASAGRANDE DAVIDE APERDIFIATO 1985 JPSM 02:05:18 05:56 17
193 REGNI MIRCO POD. AVIS DERUTA 1965 SM50 02:06:24 06:00 25
194 LEONARDI GIACOMO ATL. UMBERTIDE 1995 JPSM 02:07:53 06:04 18
195 MERLI SIMONE ATL. UMBERTIDE 1979 SM35 02:07:53 06:04 24
196 STACCIOLI GIOVANNI A.P. PONTE FELCINO PG 1955 SM60 02:08:25 06:05 11
197 PIERETTI MAURO A.S.P.A. BASTIA U. PG 1955 SM60 02:08:54 06:07 12
198 PERITO STEFANO ATL. AVIS PERUGIA 1952 SM60 02:12:43 06:17 13
199 PETRAZZINI GIUSEPPE ATL. AVIS PERUGIA 1955 SM60 02:12:43 06:17 14
200 LORENZONI IVAN POL. DIL. SANRAFEL 1955 SM60 02:15:45 06:26 15
201 VITA PASQUALE ATL. AVIS PERUGIA 1953 SM60 02:17:33 06:31 16
202

CAPORALI CARLO

ATL. AVIS PERUGIA 1953 SM60 02:22:05 06:42 17
203

SUVIERI LUCA

ATL. AVIS PERUGIA 1953 SM60 02:34:12 07:12 18
Ordine d'arrivo generale femminile - km 21
Pos Atleta Squadra ANNO Cat. Tempo Min/Km P.Cat.
1 CARDARELLI FABIOLA AMATORI POD. TERNI 1973 SF40 01:25:28 04:03 0
2 GARINEI PAOLA ATL. AVIS PERUGIA 1972 SF40 01:25:39 04:04 0
3 MOSCONI LAURA DREAM RUNNERS PG 1976 SF35 01:26:48 04:07 0
4 SERENI SILVIA ATL. WINNER FOLIGNO 1976 SF35 01:36:17 04:34 0
5 GIANNINI LAURA RUNNERS SANGEMINI TR 1975 SF40 01:36:25 04:34 0
6 DRAOLI MARIA CRISTINA ASSISI RUNNERS 1964 SF50 01:38:47 04:41 1
7 CAMELLINI FEDERICA POD. AVIS DERUTA 1974 SF40 01:38:57 04:41 1
8 VICHI KATIUSCIA POD. AVIS DERUTA 1974 SF40 01:40:50 04:47 2
9 ABBANDONI ELEONORA DREAM RUNNERS PG 1981 JPSF 01:41:05 04:48 1
10 CIUCHI SILVIA RUNNERS MONTE ACUTO 1973 SF40 01:41:11 04:48 3
11 RINALDI LAURA ATL. AVIS PERUGIA 1981 JPSF 01:43:52 04:55 2
12 VAN DER MALE SYLVIA G.S. FILIPPIDE C. D. LAGO 1976 SF35 01:45:21 05:00 1
13 MURASECCO PIERPAOLA ATL. AVIS PERUGIA 1966 SF45 01:46:49 05:04 1
14 PELLI ALESSANDRA POD. AVIS DERUTA 1970 SF45 01:47:07 05:05 2
15 FRATINI LUCIA SIMONA ATL. CAPANNE PG 1970 SF45 01:51:14 05:16 3
16 TINE' VIOLA POD. CORCIANO 1972 SF40 01:51:19 05:17 4
17 VELLA DEBORA CDP-T&RB GROUP-AREA SISTEMA 1969 SF45 01:51:39 05:18 4
18 PIASTRA LORENA CDP-T&RB GROUP-AREA SISTEMA 1977 SF35 01:53:39 05:23 2
19 PERRONE CHIARA POD. AVIS DERUTA 1981 JPSF 01:53:44 05:24 3
20 DEL BIANCO SILVIA ATL. AVIS PERUGIA 1965 SF50 01:57:15 05:34 2
21 CRUCIANI ANNA RITA CDP-T&RB GROUP-AREA SISTEMA 1968 SF45 01:57:32 05:34 5
22 RUBECA ROSITA G.S. FILIPPIDE C. D. LAGO 1970 SF45 02:00:05 05:42 7
23 EVANGELISTI LUISA POL. DIL. SANRAFEL 1955 SF60 02:01:14 05:45 1
24 RAVACCHIOLI FRANCESCA POD. AVIS DERUTA 1974 SF40 02:02:31 05:48 5
25 FERRETTI GIUSEPPINA CDP-T&RB GROUP-AREA SISTEMA 1959 SF55 02:03:55 05:52 1
26 FALCHETTI ANNA MARIA CDP-T&RB GROUP-AREA SISTEMA 1966 SF45 02:06:25 06:00 6
27 CAIOTTI EGLE MARATHON CLUB C. DI CASTELLO 1951 SF60 02:09:07 06:07 2
28 CATTIVERA PATRIZIA POD. SOLIDARIETA' 1960 SF55 02:11:55 06:15 2
29 ARMADORI SONIA CDP-T&RB GROUP-AREA SISTEMA 1972 SF40 02:12:21 06:16 6
Ordine d'arrivo generale maschile - km 9
Pos Atleta Squadra ANNO Cat. Tempo Min/Km P.Cat.
1 BONCIO MATTEO ATL. LIBERTAS ORVIETO 1995 JPSM 00:31:20 03:29 0
2 GRILLI LEONARDO ATL. UMBERTIDE 1993 JPSM 00:32:21 03:36 0
3 AMETRANO ALESSIO POD. CORCIANO 1983 JPSM 00:32:22 03:36 0
4 TRIPPELLA GIOVANNI ATL. UMBERTIDE 1974 SM40 00:32:34 03:37 0
5 PORTOGHESE GIUSEPPE POD. AVIS DERUTA 1975 SM40 00:32:52 03:39 0
6 SCORZIELLO FRANCO DREAM RUNNERS PG 1971 SM40 00:33:03 03:40 1
7 LUCULLI DIEGO G.S. FILIPPIDE C. D. LAGO 1982 JPSM 00:33:23 03:43 1
8 CONTI MARCO MARATHON CLUB C. DI CASTELLO 1984 JPSM 00:33:25 03:43 2
9 CARINI ANGELO G.S. FILIPPIDE C. D. LAGO 1979 SM35 00:33:57 03:46 1
10 MINCIOTTI MASSIMILIANO ATL. CAPANNE PG 1972 SM40 00:34:09 03:48 2
11 TACCUCCI MAURIZIO ATL. IL COLLE PERUGIA 1970 SM45 00:34:09 03:48 1
12 FIORUCCI MARCO ATL. CAPANNE PG 1962 SM50 00:34:50 03:52 1
13 CORSINI FRANCESCO OLYMPIC RUNNERS LAMA 1989 JPSM 00:34:53 03:53 3
14 DEL BERGIOLO ROBERTO G.S. FILIPPIDE C. D. LAGO 1962 SM50 00:35:00 03:53 2
15 BECCHETTI ENRICO RUNNERS MONTE ACUTO 1970 SM45 00:35:08 03:54 2
16 PACETTI SIMONE ATL. IL COLLE PERUGIA 1972 SM40 00:35:09 03:54 3
17 BIAGIONI MASSIMO ATL. TAINO 1974 SM40 00:35:19 03:55 4
18 PEZZA ANDREA G.S. FILIPPIDE C. D. LAGO 1974 SM40 00:35:27 03:56 5
19 PACETTI SILVIO ATL. IL COLLE PERUGIA 1969 SM45 00:35:34 03:57 3
20 MARTINELLI LUCA MARATHON CLUB C. DI CASTELLO 1962 SM50 00:35:36 03:57 3
21 BIGARINI MARCO CDP-T&RB GROUP-AREA SISTEMA 1971 SM40 00:35:44 03:58 6
22 TOMASSOLI MASSIMILIANO CDP-T&RB GROUP-AREA SISTEMA 1968 SM45 00:36:05 04:01 4
23 LAROTONDA ATTILIO ATL. AVIS PERUGIA 1966 SM45 00:36:07 04:01 5
24 BONCOMPAGNI DAVIDE G POINT PROFESSIONE SPORT 1987 JPSM 00:36:09 04:01 4
25 LONGO GIOVANNI G POINT PROFESSIONE SPORT 1976 SM35 00:36:12 04:01 2
26 SPACCI FABRIZIO CDP-T&RB GROUP-AREA SISTEMA 1966 SM45 00:36:17 04:02 6
27 GIORGI FRANCESCO ATL. AVIS PERUGIA 1969 SM45 00:36:22 04:02 7
28 MORANI DAVIDE G POINT PROFESSIONE SPORT 1987 JPSM 00:37:00 04:07 5
29 CANCELLONI MARCELLO ATL. AVIS PERUGIA 1972 SM40 00:37:22 04:09 7
30 MARINI ALESSIO POD. CORCIANO 1990 JPSM 00:37:24 04:09 6
31 PERICOLI ANDREA POD. CORCIANO 1976 SM35 00:37:27 04:10 3
32 LINCE MIRNO CDP-T&RB GROUP-AREA SISTEMA 1972 SM40 00:37:33 04:10 8
33 DONINI SIMONE ATL. WINNER FOLIGNO 1972 SM40 00:37:37 04:11 9
34 CORICELLO ANTONIO POD. CORCIANO 1973 SM40 00:37:42 04:11 10
35 COVARELLI MAURO ATL. AVIS PERUGIA 1959 SM55 00:37:47 04:12 1
36 CIURNELLI ROBERTO A.S.P.A. BASTIA U. PG 1976 SM35 00:37:48 04:12 4
37 LANTI DANIELE ATL. AVIS PERUGIA 1965 SM50 00:37:49 04:12 4
38 FUMANTI MICHELE POD. CORCIANO 1975 SM40 00:37:50 04:12 11
39 PIERINI ROBERTO G.S. FILIPPIDE C. D. LAGO 1987 JPSM 00:37:52 04:12 7
40 TERZAROLI PAOLO G.S. FILIPPIDE C. D. LAGO 1976 SM35 00:37:56 04:13 5
41 MAGGI MASSIMO ATL. TREVI 1972 SM40 00:38:23 04:16 12
42 DUCHI ALESSANDRO CDP-T&RB GROUP-AREA SISTEMA 1973 SM40 00:38:27 04:16 13
43 MANGIALASCHE ALFONSO A.S. ATHLON ASI BASTIA PG 1951 SM60 00:38:46 04:18 1
44 BINACCI MASSIMO ATL. AVIS PERUGIA 1965 SM50 00:38:49 04:19 5
45 GIANNINI DAVID UISP ALTOTEVERE 1971 SM40 00:38:50 04:19 14
46 BORGHESI NEVIO MARATHON CLUB C. DI CASTELLO 1960 SM55 00:38:50 04:19 2
47 PANCIAROLA FABIO CDP-T&RB GROUP-AREA SISTEMA 1969 SM45 00:38:54 04:19 8
48 BELLUCCI ANDREA ATL. TAINO 1971 SM40 00:38:55 04:19 15
49 MARSILI EROS ATL. CAPANNE PG 1982 JPSM 00:38:58 04:20 8
50 CESARACCIO ALESSIO ATL. UMBERTIDE 1990 JPSM 00:39:01 04:20 9
51 RIBIGINI LEONARDO CDP-T&RB GROUP-AREA SISTEMA 1973 SM40 00:39:03 04:20 16
52 PORFIRI MAURO CDP-T&RB GROUP-AREA SISTEMA 1968 SM45 00:39:04 04:20 9
53 PROCACCI MARIO ATL. TAINO 1966 SM45 00:39:11 04:21 10
54 SANZONE ROBERTO ATL. TAINO 1976 SM35 00:39:13 04:21 6
55 NOTARI RENZO ATL. TAINO 1973 SM40 00:39:14 04:22 17
56 CRISTALDINI ROBERTO CDP-T&RB GROUP-AREA SISTEMA 1966 SM45 00:39:16 04:22 11
57 TACCUCCI ALESSIO ATL. IL COLLE PERUGIA 1995 JPSM 00:39:18 04:22 10
58 GRILLI FABRIZIO ATL. UMBERTIDE 1964 SM50 00:39:22 04:22 6
59 MASTRINI MAURIZIO ATL. WINNER FOLIGNO 1963 SM50 00:39:29 04:23 7
60 ROSI GIANLUCA ATL. WINNER FOLIGNO 1971 SM40 00:39:31 04:23 18
61 PIZZOFERRATO MARIO CDP-T&RB GROUP-AREA SISTEMA 1957 SM55 00:39:49 04:25 3
62 GORACCI MARCO PODISTICA VOLUMNIA SERICAP 1966 SM45 00:40:02 04:27 12
63 ARCALENI MICHELE ATL. AVIS PERUGIA 1970 SM45 00:40:10 04:28 13
64 CAPODIMONTI FAUSTO ATL. WINNER FOLIGNO 1967 SM45 00:40:16 04:28 14
65 MARTELLINI PAOLO POL. VIRTUS SPOLETO 1968 SM45 00:40:16 04:28 15
66 CARDARELLI FEDERICO G.S. FILIPPIDE C. D. LAGO 1974 SM40 00:40:19 04:29 19
67 COSTARELLI EMANUELE CDP-T&RB GROUP-AREA SISTEMA 1971 SM40 00:40:30 04:30 20
68 FIORI LEONARDO ATL. CAPANNE PG 1962 SM50 00:40:36 04:31 8
69 TAVERNELLI FRANCESCO UISP ALTOTEVERE 1981 JPSM 00:40:44 04:32 11
70 MOGINI FABIO ATL. AVIS PERUGIA 1968 SM45 00:41:10 04:34 16
71 PIETROBELLI DANIELE CDP-T&RB GROUP-AREA SISTEMA 1973 SM40 00:41:15 04:35 21
72 MECARONE CLAUDIO G.S. FILIPPIDE C. D. LAGO 1963 SM50 00:41:24 04:36 9
73 ZUALDI MICHELE POL. VIRTUS SPOLETO 1981 JPSM 00:41:35 04:37 12
74 COLLACCHIONI LEONARDO PALESTRA G. POINT 1986 JPSM 00:41:36 04:37 13
75 CERQUAGLIA MARIO ATL. IL COLLE PERUGIA 1965 SM50 00:42:05 04:41 10
76 BALDONI MICHELE POD. CORCIANO 1977 SM35 00:42:06 04:41 7
77 PERICOLI LEONARDO G.S. FILIPPIDE C. D. LAGO 1971 SM40 00:42:10 04:41 22
78 CALIGIANA MICHELE L'UNANUOVA 1973 SM40 00:42:19 04:42 23
79 REALI GABRIELE ATL. AVIS PERUGIA 1964 SM50 00:42:20 04:42 11
80 PERICOLI CLAUDIO ATL. IL COLLE PERUGIA 1978 SM35 00:42:28 04:43 8
81 CHIAVINI FABIO ATL. TAINO 1967 SM45 00:42:30 04:43 17
82 PANFILI FILIPPO ATL. AVIS PERUGIA 1983 JPSM 00:42:32 04:44 14
83 MELUCCI EMILIO CDP-T&RB GROUP-AREA SISTEMA 1962 SM50 00:42:34 04:44 12
84 BUCCI RICCARDO UISP ALTOTEVERE 1977 SM35 00:42:35 04:44 9
85 SIENA ANDREA A.S.P.A. BASTIA U. PG 1975 SM40 00:42:36 04:44 24
86 PERILLI FABIO G.S. FILIPPIDE C. D. LAGO 1967 SM45 00:42:45 04:45 18
87 CARDAIOLI DANILO ATL. IL COLLE PERUGIA 1963 SM50 00:42:48 04:45 13
88 TOGNOLONI ITALO ATL. AVIS PERUGIA 1945 SM70 00:43:02 04:47 1
89 MASSARO ANTONIO AMATORI PODISMO BENEVENTO 1974 SM40 00:43:04 04:47 25
90 PASSERI MARCO G.S. FILIPPIDE C. D. LAGO 1966 SM45 00:43:13 04:48 19
91 PERSICHETTI MARCO UISPORT AVIS TODI 1975 SM40 00:43:15 04:48 26
92 PANZIERI ALESSANDRO ATL. WINNER FOLIGNO 1971 SM40 00:43:20 04:49 27
93 PELLEGRINO DANIELE ATL. IL COLLE PERUGIA 1962 SM50 00:43:26 04:50 14
94 CECCARELLI ENRICO GUBBIO RUNNERS 1977 SM35 00:43:33 04:50 10
95 POLLINI DAVID POD. LINO SPAGNOLI PG 1972 SM40 00:43:35 04:51 28
96 LEONARDI ROBERTO MARATHON CLUB C. DI CASTELLO 1974 SM40 00:43:38 04:51 29
97 GORACCI GABRIELE PALESTRA G. POINT 1980 SM35 00:43:38 04:51 11
98 ZANDRINI GIANLUCA G.S. FILIPPIDE C. D. LAGO 1968 SM45 00:43:39 04:51 20
99 TRIMARCHI MICHELE G.S. FILIPPIDE C. D. LAGO 1978 SM35 00:43:44 04:52 12
100 SGUILLA ENZO ATL. AVIS PERUGIA 1951 SM60 00:43:47 04:52 2
101 GIULIANI MATTEO POD. AVIS DERUTA 1982 JPSM 00:44:09 04:54 15
102 URUCI ERMAL POD. CORCIANO 1984 JPSM 00:44:33 04:57 16
103 FERRAGUZZI MASSIMO ATL. CAPANNE PG 1962 SM50 00:44:33 04:57 15
104 RAMACCIATI NICOLA ATL. CAPANNE PG 1969 SM45 00:44:53 04:59 21
105 RAIO ROBERTO ATL. WINNER FOLIGNO 1972 SM40 00:44:53 04:59 30
106 MINCIARELLI STEFANO ASSISI RUNNERS 1965 SM50 00:44:54 04:59 16
107 MORGANTI SERGIO MARATHON CLUB C. DI CASTELLO 1969 SM45 00:45:22 05:02 22
108 SOLFANELLI MIRCO G.S. FILIPPIDE C. D. LAGO 1964 SM50 00:45:23 05:03 17
109 GERMINELLI ROBERTO A.P. PONTE FELCINO PG 1965 SM50 00:45:27 05:03 18
110 SACCOCCINI MARCO ATL. IL COLLE PERUGIA 1977 SM35 00:45:27 05:03 13
111 TRABALZA RAFFAELE ATL. WINNER FOLIGNO 1972 SM40 00:45:31 05:03 31
112 TESSADORI ROMUALDO ATL. AVIS PERUGIA 1960 SM55 00:45:32 05:04 4
113 RONDELLI DANTE RODOLFO ATL. TAINO 1967 SM45 00:45:32 05:04 23
114 FERRETTI GIANNI ATL. WINNER FOLIGNO 1967 SM45 00:45:42 05:05 24
115 BILLERI MAURIZIO CDP-T&RB GROUP-AREA SISTEMA 1958 SM55 00:45:56 05:06 5
116 DRAGONI MARCO G.S. FILIPPIDE C. D. LAGO 1970 SM45 00:46:07 05:07 25
117 MASSETTI SERGIO CDP-T&RB GROUP-AREA SISTEMA 1957 SM55 00:46:10 05:08 6
118 RENGA MICHELE A.P. PONTE FELCINO PG 1968 SM45 00:46:12 05:08 26
119 CHIOCCI ALESSIO CDP-T&RB GROUP-AREA SISTEMA 1981 JPSM 00:46:25 05:09 17
120 PASQUALINI FABRIZIO ATL. IL COLLE PERUGIA 1958 SM55 00:46:26 05:10 7
121 MINNITI LUCA ATL. CAPANNE PG 1975 SM40 00:46:30 05:10 32
122 BALDONI DAMIANO CDP-T&RB GROUP-AREA SISTEMA 1982 JPSM 00:46:34 05:10 18
123 SARGENTI AUGUSTO ATL. IL COLLE PERUGIA 1955 SM60 00:46:34 05:10 3
124 SALVATI GABRIELE ATL. WINNER FOLIGNO 1967 SM45 00:46:40 05:11 27
125 ROSSI PAOLO A.S.P.A. BASTIA U. PG 1965 SM50